ユジノサハリンスク の空港の天気 - METARとTAF

ホムトヴォ空港(ユジノサハリンスク) ( UHSS / UUS ) - ロシア ユジノサハリンスク
飛行場実況気象(Metar)
観測時間08/05 07:30 VLAT (08/04 21:30 UTC)
風向・風速北 9m/s
視程10km以上
天気現象
全天の8割程度の雲 雲底高度 180m
気温14℃
湿度94%
気圧1012hPa
METARUHSS 042130Z 35009MPS 9999 BKN006 14/13 Q1012 R01/70D NOSIG RMK MT OBSC QFE758/1010
過去の天気等 Google飛行場航空写真 Wunderground天気予報

過去48時間のMETAR

飛行場予報(TAF)
発表時間: 8/05 06:00 VLAT (8/04 20:00 UTC)
予報対象時間: 5日7時 VLAT ~ 6日13時 VLAT
風向・風速北 7m/s
視程10km以上
全天の8割程度の雲 雲底高度 180m
全天の8割程度の積乱雲 雲底高度 610m
5日7時 VLAT ~ 5日17時 VLAT に一時的に
天気現象弱いしゅう雨
TAF UHSS 042000Z 0421/0603 35007MPS 9999 BKN006 BKN020CB
TEMPO 0421/0507 -SHRA